sensor_id;sensor_type;location;lat;lon;timestamp;temperature;humidity
74294;DHT22;64044;59.904;10.738;2022-12-18T00:01:50;2.00;70.40
74294;DHT22;64044;59.904;10.738;2022-12-18T00:04:23;2.10;70.40
74294;DHT22;64044;59.904;10.738;2022-12-18T00:06:50;2.10;70.50
74294;DHT22;64044;59.904;10.738;2022-12-18T00:09:16;2.10;70.30
74294;DHT22;64044;59.904;10.738;2022-12-18T00:11:42;2.10;70.20
74294;DHT22;64044;59.904;10.738;2022-12-18T00:14:09;2.10;70.20
74294;DHT22;64044;59.904;10.738;2022-12-18T00:16:36;2.10;70.20
74294;DHT22;64044;59.904;10.738;2022-12-18T00:19:03;2.10;70.10
74294;DHT22;64044;59.904;10.738;2022-12-18T00:21:30;2.10;70.20
74294;DHT22;64044;59.904;10.738;2022-12-18T00:23:56;2.20;70.30
74294;DHT22;64044;59.904;10.738;2022-12-18T00:26:28;2.10;70.30
74294;DHT22;64044;59.904;10.738;2022-12-18T00:28:55;2.20;70.50
74294;DHT22;64044;59.904;10.738;2022-12-18T00:31:23;2.20;70.50
74294;DHT22;64044;59.904;10.738;2022-12-18T00:33:50;2.20;70.50
74294;DHT22;64044;59.904;10.738;2022-12-18T00:36:18;2.20;70.80
74294;DHT22;64044;59.904;10.738;2022-12-18T00:38:45;2.20;70.70
74294;DHT22;64044;59.904;10.738;2022-12-18T00:41:12;2.20;70.70
74294;DHT22;64044;59.904;10.738;2022-12-18T00:43:38;2.20;70.70
74294;DHT22;64044;59.904;10.738;2022-12-18T00:46:04;2.20;70.80
74294;DHT22;64044;59.904;10.738;2022-12-18T00:48:30;2.30;70.90
74294;DHT22;64044;59.904;10.738;2022-12-18T00:50:56;2.30;70.90
74294;DHT22;64044;59.904;10.738;2022-12-18T00:53:22;2.30;71.00
74294;DHT22;64044;59.904;10.738;2022-12-18T00:55:47;2.30;70.80
74294;DHT22;64044;59.904;10.738;2022-12-18T00:58:14;2.30;70.70
74294;DHT22;64044;59.904;10.738;2022-12-18T01:00:41;2.30;70.80
74294;DHT22;64044;59.904;10.738;2022-12-18T01:03:07;2.30;71.10
74294;DHT22;64044;59.904;10.738;2022-12-18T01:05:32;2.30;71.20
74294;DHT22;64044;59.904;10.738;2022-12-18T01:07:58;2.30;71.20
74294;DHT22;64044;59.904;10.738;2022-12-18T01:10:24;2.30;71.20
74294;DHT22;64044;59.904;10.738;2022-12-18T01:12:50;2.30;71.10
74294;DHT22;64044;59.904;10.738;2022-12-18T01:15:17;2.30;71.10
74294;DHT22;64044;59.904;10.738;2022-12-18T01:17:43;2.30;71.20
74294;DHT22;64044;59.904;10.738;2022-12-18T01:20:10;2.30;71.30
74294;DHT22;64044;59.904;10.738;2022-12-18T01:22:36;2.30;71.40
74294;DHT22;64044;59.904;10.738;2022-12-18T01:25:03;2.40;71.20
74294;DHT22;64044;59.904;10.738;2022-12-18T01:27:29;2.40;71.40
74294;DHT22;64044;59.904;10.738;2022-12-18T01:29:55;2.40;71.50
74294;DHT22;64044;59.904;10.738;2022-12-18T01:32:21;2.40;71.60
74294;DHT22;64044;59.904;10.738;2022-12-18T01:34:47;2.40;71.70
74294;DHT22;64044;59.904;10.738;2022-12-18T01:37:12;2.50;71.80
74294;DHT22;64044;59.904;10.738;2022-12-18T01:39:38;2.50;71.70
74294;DHT22;64044;59.904;10.738;2022-12-18T01:42:11;2.50;71.70
74294;DHT22;64044;59.904;10.738;2022-12-18T01:47:38;2.60;72.20
74294;DHT22;64044;59.904;10.738;2022-12-18T01:50:09;2.60;71.70
74294;DHT22;64044;59.904;10.738;2022-12-18T01:52:36;2.60;71.80
74294;DHT22;64044;59.904;10.738;2022-12-18T01:55:04;2.60;71.60
74294;DHT22;64044;59.904;10.738;2022-12-18T01:57:30;2.70;71.70
74294;DHT22;64044;59.904;10.738;2022-12-18T02:00:00;2.70;71.60
74294;DHT22;64044;59.904;10.738;2022-12-18T02:02:28;2.70;71.70
74294;DHT22;64044;59.904;10.738;2022-12-18T02:04:54;2.70;71.60
74294;DHT22;64044;59.904;10.738;2022-12-18T02:13:00;2.60;71.60
74294;DHT22;64044;59.904;10.738;2022-12-18T02:15:42;2.70;71.80
74294;DHT22;64044;59.904;10.738;2022-12-18T02:18:14;2.70;71.60
74294;DHT22;64044;59.904;10.738;2022-12-18T02:21:00;2.70;72.90
74294;DHT22;64044;59.904;10.738;2022-12-18T02:26:29;2.60;72.30
74294;DHT22;64044;59.904;10.738;2022-12-18T02:29:16;2.60;72.00
74294;DHT22;64044;59.904;10.738;2022-12-18T02:31:50;2.60;72.40
74294;DHT22;64044;59.904;10.738;2022-12-18T02:34:17;2.60;72.50
74294;DHT22;64044;59.904;10.738;2022-12-18T02:36:45;2.70;73.00
74294;DHT22;64044;59.904;10.738;2022-12-18T02:39:36;2.60;72.60
74294;DHT22;64044;59.904;10.738;2022-12-18T02:42:03;2.60;73.00
74294;DHT22;64044;59.904;10.738;2022-12-18T02:44:43;2.60;72.20
74294;DHT22;64044;59.904;10.738;2022-12-18T02:47:11;2.70;72.60
74294;DHT22;64044;59.904;10.738;2022-12-18T02:52:55;2.60;72.90
74294;DHT22;64044;59.904;10.738;2022-12-18T03:01:57;2.60;73.30
74294;DHT22;64044;59.904;10.738;2022-12-18T03:04:18;2.60;72.80
74294;DHT22;64044;59.904;10.738;2022-12-18T03:06:49;2.60;72.80
74294;DHT22;64044;59.904;10.738;2022-12-18T03:09:21;2.70;72.80
74294;DHT22;64044;59.904;10.738;2022-12-18T03:12:04;2.70;72.80
74294;DHT22;64044;59.904;10.738;2022-12-18T03:17:39;2.70;73.00
74294;DHT22;64044;59.904;10.738;2022-12-18T03:20:16;2.70;73.30
74294;DHT22;64044;59.904;10.738;2022-12-18T03:22:45;2.70;73.30
74294;DHT22;64044;59.904;10.738;2022-12-18T03:25:14;2.70;73.20
74294;DHT22;64044;59.904;10.738;2022-12-18T03:27:45;2.70;73.10
74294;DHT22;64044;59.904;10.738;2022-12-18T03:30:12;2.70;73.10
74294;DHT22;64044;59.904;10.738;2022-12-18T03:35:33;2.70;72.70
74294;DHT22;64044;59.904;10.738;2022-12-18T03:38:00;2.70;72.60
74294;DHT22;64044;59.904;10.738;2022-12-18T03:45:54;2.60;73.30
74294;DHT22;64044;59.904;10.738;2022-12-18T03:51:28;2.60;74.70
74294;DHT22;64044;59.904;10.738;2022-12-18T03:54:02;2.70;74.60
74294;DHT22;64044;59.904;10.738;2022-12-18T03:56:32;2.70;74.50
74294;DHT22;64044;59.904;10.738;2022-12-18T03:59:00;2.70;74.60
74294;DHT22;64044;59.904;10.738;2022-12-18T04:01:48;2.70;74.80
74294;DHT22;64044;59.904;10.738;2022-12-18T04:04:15;2.70;75.30
74294;DHT22;64044;59.904;10.738;2022-12-18T04:06:42;2.70;74.80
74294;DHT22;64044;59.904;10.738;2022-12-18T04:09:09;2.80;75.00
74294;DHT22;64044;59.904;10.738;2022-12-18T04:11:35;2.80;75.10
74294;DHT22;64044;59.904;10.738;2022-12-18T04:14:00;2.80;74.90
74294;DHT22;64044;59.904;10.738;2022-12-18T04:16:27;2.80;74.80
74294;DHT22;64044;59.904;10.738;2022-12-18T04:18:53;2.80;74.80
74294;DHT22;64044;59.904;10.738;2022-12-18T04:21:19;2.80;74.70
74294;DHT22;64044;59.904;10.738;2022-12-18T04:23:45;2.90;74.70
74294;DHT22;64044;59.904;10.738;2022-12-18T04:26:10;2.90;74.60
74294;DHT22;64044;59.904;10.738;2022-12-18T04:28:36;2.90;74.60
74294;DHT22;64044;59.904;10.738;2022-12-18T04:31:03;3.00;74.60
74294;DHT22;64044;59.904;10.738;2022-12-18T04:33:29;3.00;74.40
74294;DHT22;64044;59.904;10.738;2022-12-18T04:35:54;3.00;74.30
74294;DHT22;64044;59.904;10.738;2022-12-18T04:38:20;3.10;74.30
74294;DHT22;64044;59.904;10.738;2022-12-18T04:40:46;3.10;74.30
74294;DHT22;64044;59.904;10.738;2022-12-18T04:43:11;3.10;74.20
74294;DHT22;64044;59.904;10.738;2022-12-18T04:45:37;3.10;74.30
74294;DHT22;64044;59.904;10.738;2022-12-18T04:48:03;3.10;74.20
74294;DHT22;64044;59.904;10.738;2022-12-18T04:50:30;3.10;74.10
74294;DHT22;64044;59.904;10.738;2022-12-18T04:52:55;3.10;74.00
74294;DHT22;64044;59.904;10.738;2022-12-18T04:55:21;3.10;74.00
74294;DHT22;64044;59.904;10.738;2022-12-18T04:57:47;3.20;74.10
74294;DHT22;64044;59.904;10.738;2022-12-18T05:00:13;3.20;74.10
74294;DHT22;64044;59.904;10.738;2022-12-18T05:02:39;3.20;74.00
74294;DHT22;64044;59.904;10.738;2022-12-18T05:05:06;3.20;74.00
74294;DHT22;64044;59.904;10.738;2022-12-18T05:07:31;3.20;73.90
74294;DHT22;64044;59.904;10.738;2022-12-18T05:09:57;3.20;74.40
74294;DHT22;64044;59.904;10.738;2022-12-18T05:12:23;3.20;73.70
74294;DHT22;64044;59.904;10.738;2022-12-18T05:14:48;3.20;73.70
74294;DHT22;64044;59.904;10.738;2022-12-18T05:17:14;3.20;73.40
74294;DHT22;64044;59.904;10.738;2022-12-18T05:19:39;3.20;73.60
74294;DHT22;64044;59.904;10.738;2022-12-18T05:22:05;3.20;73.60
74294;DHT22;64044;59.904;10.738;2022-12-18T05:24:31;3.20;73.70
74294;DHT22;64044;59.904;10.738;2022-12-18T05:26:56;3.10;74.20
74294;DHT22;64044;59.904;10.738;2022-12-18T05:29:22;3.20;74.30
74294;DHT22;64044;59.904;10.738;2022-12-18T05:31:47;3.20;74.40
74294;DHT22;64044;59.904;10.738;2022-12-18T05:34:13;3.20;74.50
74294;DHT22;64044;59.904;10.738;2022-12-18T05:36:39;3.20;74.50
74294;DHT22;64044;59.904;10.738;2022-12-18T05:39:04;3.30;74.70
74294;DHT22;64044;59.904;10.738;2022-12-18T05:41:30;3.30;74.70
74294;DHT22;64044;59.904;10.738;2022-12-18T05:43:56;3.30;74.60
74294;DHT22;64044;59.904;10.738;2022-12-18T05:46:21;3.30;74.60
74294;DHT22;64044;59.904;10.738;2022-12-18T05:48:47;3.30;74.50
74294;DHT22;64044;59.904;10.738;2022-12-18T05:51:17;3.30;74.40
74294;DHT22;64044;59.904;10.738;2022-12-18T05:53:43;3.30;74.20
74294;DHT22;64044;59.904;10.738;2022-12-18T05:56:13;3.30;74.00
74294;DHT22;64044;59.904;10.738;2022-12-18T05:58:40;3.30;74.00
74294;DHT22;64044;59.904;10.738;2022-12-18T06:03:37;3.30;73.70
74294;DHT22;64044;59.904;10.738;2022-12-18T06:06:03;3.20;73.60
74294;DHT22;64044;59.904;10.738;2022-12-18T06:08:29;3.20;73.70
74294;DHT22;64044;59.904;10.738;2022-12-18T06:10:54;3.20;73.90
74294;DHT22;64044;59.904;10.738;2022-12-18T06:13:21;3.20;74.10
74294;DHT22;64044;59.904;10.738;2022-12-18T06:15:46;3.20;74.10
74294;DHT22;64044;59.904;10.738;2022-12-18T06:18:12;3.20;74.10
74294;DHT22;64044;59.904;10.738;2022-12-18T06:20:38;3.20;74.10
74294;DHT22;64044;59.904;10.738;2022-12-18T06:23:05;3.10;73.90
74294;DHT22;64044;59.904;10.738;2022-12-18T06:25:31;3.10;74.20
74294;DHT22;64044;59.904;10.738;2022-12-18T06:27:57;3.10;74.40
74294;DHT22;64044;59.904;10.738;2022-12-18T06:30:22;3.00;74.60
74294;DHT22;64044;59.904;10.738;2022-12-18T06:32:49;3.00;74.80
74294;DHT22;64044;59.904;10.738;2022-12-18T06:35:14;3.00;75.00
74294;DHT22;64044;59.904;10.738;2022-12-18T06:37:40;3.00;75.30
74294;DHT22;64044;59.904;10.738;2022-12-18T06:40:06;3.00;75.30
74294;DHT22;64044;59.904;10.738;2022-12-18T06:42:32;3.00;75.30
74294;DHT22;64044;59.904;10.738;2022-12-18T06:44:58;3.10;75.20
74294;DHT22;64044;59.904;10.738;2022-12-18T06:47:24;3.00;75.20
74294;DHT22;64044;59.904;10.738;2022-12-18T06:49:49;3.10;75.30
74294;DHT22;64044;59.904;10.738;2022-12-18T06:52:15;3.00;75.10
74294;DHT22;64044;59.904;10.738;2022-12-18T06:54:40;3.00;74.90
74294;DHT22;64044;59.904;10.738;2022-12-18T06:57:06;3.00;74.80
74294;DHT22;64044;59.904;10.738;2022-12-18T06:59:31;3.00;74.90
74294;DHT22;64044;59.904;10.738;2022-12-18T07:01:57;3.00;75.20
74294;DHT22;64044;59.904;10.738;2022-12-18T07:04:28;3.00;75.20
74294;DHT22;64044;59.904;10.738;2022-12-18T07:06:53;2.90;75.20
74294;DHT22;64044;59.904;10.738;2022-12-18T07:09:19;2.90;76.60
74294;DHT22;64044;59.904;10.738;2022-12-18T07:11:45;2.90;74.70
74294;DHT22;64044;59.904;10.738;2022-12-18T07:14:10;2.90;74.60
74294;DHT22;64044;59.904;10.738;2022-12-18T07:16:36;2.80;74.60
74294;DHT22;64044;59.904;10.738;2022-12-18T07:19:01;2.80;74.80
74294;DHT22;64044;59.904;10.738;2022-12-18T07:21:27;2.70;74.90
74294;DHT22;64044;59.904;10.738;2022-12-18T07:23:53;2.70;75.00
74294;DHT22;64044;59.904;10.738;2022-12-18T07:26:20;2.70;75.00
74294;DHT22;64044;59.904;10.738;2022-12-18T07:28:46;2.70;75.10
74294;DHT22;64044;59.904;10.738;2022-12-18T07:31:18;2.60;75.00
74294;DHT22;64044;59.904;10.738;2022-12-18T07:33:45;2.60;75.00
74294;DHT22;64044;59.904;10.738;2022-12-18T07:36:11;2.60;74.90
74294;DHT22;64044;59.904;10.738;2022-12-18T07:38:37;2.50;74.80
74294;DHT22;64044;59.904;10.738;2022-12-18T07:41:04;2.50;74.90
74294;DHT22;64044;59.904;10.738;2022-12-18T07:43:31;2.50;74.80
74294;DHT22;64044;59.904;10.738;2022-12-18T07:45:56;2.40;74.80
74294;DHT22;64044;59.904;10.738;2022-12-18T07:48:22;2.40;74.90
74294;DHT22;64044;59.904;10.738;2022-12-18T07:50:48;2.30;74.90
74294;DHT22;64044;59.904;10.738;2022-12-18T07:53:13;2.30;75.40
74294;DHT22;64044;59.904;10.738;2022-12-18T07:55:40;2.30;75.60
74294;DHT22;64044;59.904;10.738;2022-12-18T07:58:07;2.30;75.70
74294;DHT22;64044;59.904;10.738;2022-12-18T08:00:33;2.30;75.90
74294;DHT22;64044;59.904;10.738;2022-12-18T08:02:59;2.30;76.10
74294;DHT22;64044;59.904;10.738;2022-12-18T08:05:25;2.30;76.10
74294;DHT22;64044;59.904;10.738;2022-12-18T08:07:51;2.30;76.10
74294;DHT22;64044;59.904;10.738;2022-12-18T08:10:16;2.30;76.10
74294;DHT22;64044;59.904;10.738;2022-12-18T08:12:42;2.30;76.20
74294;DHT22;64044;59.904;10.738;2022-12-18T08:15:08;2.30;76.10
74294;DHT22;64044;59.904;10.738;2022-12-18T08:17:34;2.30;75.80
74294;DHT22;64044;59.904;10.738;2022-12-18T08:19:59;2.30;75.90
74294;DHT22;64044;59.904;10.738;2022-12-18T08:22:25;2.30;75.90
74294;DHT22;64044;59.904;10.738;2022-12-18T08:24:51;2.30;75.90
74294;DHT22;64044;59.904;10.738;2022-12-18T08:27:17;2.30;76.10
74294;DHT22;64044;59.904;10.738;2022-12-18T08:29:43;2.30;76.20
74294;DHT22;64044;59.904;10.738;2022-12-18T08:32:08;2.30;76.30
74294;DHT22;64044;59.904;10.738;2022-12-18T08:34:34;2.30;76.50
74294;DHT22;64044;59.904;10.738;2022-12-18T08:36:59;2.30;76.70
74294;DHT22;64044;59.904;10.738;2022-12-18T08:39:25;2.30;76.90
74294;DHT22;64044;59.904;10.738;2022-12-18T08:42:16;2.30;77.30
74294;DHT22;64044;59.904;10.738;2022-12-18T08:45:01;2.40;77.50
74294;DHT22;64044;59.904;10.738;2022-12-18T08:47:27;2.50;77.90
74294;DHT22;64044;59.904;10.738;2022-12-18T08:49:53;2.60;78.30
74294;DHT22;64044;59.904;10.738;2022-12-18T08:52:19;2.70;78.30
74294;DHT22;64044;59.904;10.738;2022-12-18T08:54:44;2.80;78.20
74294;DHT22;64044;59.904;10.738;2022-12-18T08:57:10;2.80;77.70
74294;DHT22;64044;59.904;10.738;2022-12-18T08:59:35;2.90;77.60
74294;DHT22;64044;59.904;10.738;2022-12-18T09:02:01;3.00;77.50
74294;DHT22;64044;59.904;10.738;2022-12-18T09:04:26;3.10;77.60
74294;DHT22;64044;59.904;10.738;2022-12-18T09:06:55;3.20;77.40
74294;DHT22;64044;59.904;10.738;2022-12-18T09:09:20;3.30;77.40
74294;DHT22;64044;59.904;10.738;2022-12-18T09:11:46;3.40;77.50
74294;DHT22;64044;59.904;10.738;2022-12-18T09:14:12;3.40;77.30
74294;DHT22;64044;59.904;10.738;2022-12-18T09:16:37;3.50;77.30
74294;DHT22;64044;59.904;10.738;2022-12-18T09:19:04;3.60;77.30
74294;DHT22;64044;59.904;10.738;2022-12-18T09:21:33;3.60;77.20
74294;DHT22;64044;59.904;10.738;2022-12-18T09:24:00;3.60;77.10
74294;DHT22;64044;59.904;10.738;2022-12-18T09:26:26;3.70;77.10
74294;DHT22;64044;59.904;10.738;2022-12-18T09:28:52;3.70;76.90
74294;DHT22;64044;59.904;10.738;2022-12-18T09:31:20;3.70;77.00
74294;DHT22;64044;59.904;10.738;2022-12-18T09:33:45;3.70;77.00
74294;DHT22;64044;59.904;10.738;2022-12-18T09:36:13;3.80;76.90
74294;DHT22;64044;59.904;10.738;2022-12-18T09:38:39;3.80;77.00
74294;DHT22;64044;59.904;10.738;2022-12-18T09:44:36;3.80;77.50
74294;DHT22;64044;59.904;10.738;2022-12-18T09:50:22;3.80;77.00
74294;DHT22;64044;59.904;10.738;2022-12-18T09:52:52;3.90;77.40
74294;DHT22;64044;59.904;10.738;2022-12-18T09:55:38;3.90;76.90
74294;DHT22;64044;59.904;10.738;2022-12-18T10:00:58;3.90;77.20
74294;DHT22;64044;59.904;10.738;2022-12-18T10:03:24;4.00;77.40
74294;DHT22;64044;59.904;10.738;2022-12-18T10:06:05;4.10;77.70
74294;DHT22;64044;59.904;10.738;2022-12-18T10:13:56;4.60;78.00
74294;DHT22;64044;59.904;10.738;2022-12-18T10:16:34;4.80;77.90
74294;DHT22;64044;59.904;10.738;2022-12-18T10:27:23;5.80;77.20
74294;DHT22;64044;59.904;10.738;2022-12-18T10:29:50;6.10;77.00
74294;DHT22;64044;59.904;10.738;2022-12-18T10:32:25;6.50;77.20
74294;DHT22;64044;59.904;10.738;2022-12-18T10:34:53;6.80;76.80
74294;DHT22;64044;59.904;10.738;2022-12-18T10:37:27;7.10;76.70
74294;DHT22;64044;59.904;10.738;2022-12-18T10:40:12;7.50;76.40
74294;DHT22;64044;59.904;10.738;2022-12-18T10:42:38;7.80;74.40
74294;DHT22;64044;59.904;10.738;2022-12-18T10:45:11;8.20;74.30
74294;DHT22;64044;59.904;10.738;2022-12-18T10:47:42;8.50;72.40
74294;DHT22;64044;59.904;10.738;2022-12-18T10:50:39;8.70;71.30
74294;DHT22;64044;59.904;10.738;2022-12-18T10:53:05;8.90;70.20
74294;DHT22;64044;59.904;10.738;2022-12-18T10:55:38;9.10;70.50
74294;DHT22;64044;59.904;10.738;2022-12-18T11:01:12;9.50;68.90
74294;DHT22;64044;59.904;10.738;2022-12-18T11:06:04;10.00;68.80
74294;DHT22;64044;59.904;10.738;2022-12-18T11:08:30;10.30;68.20
74294;DHT22;64044;59.904;10.738;2022-12-18T11:10:56;10.50;67.30
74294;DHT22;64044;59.904;10.738;2022-12-18T11:13:27;10.80;67.00
74294;DHT22;64044;59.904;10.738;2022-12-18T11:15:53;11.00;66.00
74294;DHT22;64044;59.904;10.738;2022-12-18T11:18:34;11.30;66.20
74294;DHT22;64044;59.904;10.738;2022-12-18T11:21:09;11.70;64.00
74294;DHT22;64044;59.904;10.738;2022-12-18T11:23:37;12.00;64.70
74294;DHT22;64044;59.904;10.738;2022-12-18T11:26:11;12.30;64.10
74294;DHT22;64044;59.904;10.738;2022-12-18T11:28:40;12.60;63.10
74294;DHT22;64044;59.904;10.738;2022-12-18T11:31:25;12.90;61.70
74294;DHT22;64044;59.904;10.738;2022-12-18T11:34:27;13.20;59.00
74294;DHT22;64044;59.904;10.738;2022-12-18T11:36:54;13.50;58.30
74294;DHT22;64044;59.904;10.738;2022-12-18T11:41:59;14.00;58.20
74294;DHT22;64044;59.904;10.738;2022-12-18T11:44:46;14.20;57.40
74294;DHT22;64044;59.904;10.738;2022-12-18T11:47:28;14.40;57.10
74294;DHT22;64044;59.904;10.738;2022-12-18T11:49:56;14.60;55.70
74294;DHT22;64044;59.904;10.738;2022-12-18T11:52:33;14.70;56.00
74294;DHT22;64044;59.904;10.738;2022-12-18T11:55:10;14.70;54.50
74294;DHT22;64044;59.904;10.738;2022-12-18T12:00:17;14.50;52.80
74294;DHT22;64044;59.904;10.738;2022-12-18T12:27:34;13.00;53.10
74294;DHT22;64044;59.904;10.738;2022-12-18T12:30:05;13.10;52.30
74294;DHT22;64044;59.904;10.738;2022-12-18T12:32:57;13.10;52.60
74294;DHT22;64044;59.904;10.738;2022-12-18T12:35:47;13.00;52.30
74294;DHT22;64044;59.904;10.738;2022-12-18T12:38:22;12.90;52.50
74294;DHT22;64044;59.904;10.738;2022-12-18T12:41:09;12.80;52.60
74294;DHT22;64044;59.904;10.738;2022-12-18T12:44:00;12.70;52.30
74294;DHT22;64044;59.904;10.738;2022-12-18T12:46:27;12.50;52.70
74294;DHT22;64044;59.904;10.738;2022-12-18T12:48:56;12.20;52.40
74294;DHT22;64044;59.904;10.738;2022-12-18T12:51:28;11.90;52.30
74294;DHT22;64044;59.904;10.738;2022-12-18T12:53:56;11.50;52.50
74294;DHT22;64044;59.904;10.738;2022-12-18T12:56:23;11.20;52.80
74294;DHT22;64044;59.904;10.738;2022-12-18T13:01:59;10.50;53.50
74294;DHT22;64044;59.904;10.738;2022-12-18T13:07:14;9.70;54.60
74294;DHT22;64044;59.904;10.738;2022-12-18T13:13:13;9.10;55.70
74294;DHT22;64044;59.904;10.738;2022-12-18T13:23:29;8.00;57.60
74294;DHT22;64044;59.904;10.738;2022-12-18T13:28:56;7.60;57.80
74294;DHT22;64044;59.904;10.738;2022-12-18T13:34:25;7.20;58.70
74294;DHT22;64044;59.904;10.738;2022-12-18T13:36:53;7.00;59.00
74294;DHT22;64044;59.904;10.738;2022-12-18T13:41:45;6.70;59.30
74294;DHT22;64044;59.904;10.738;2022-12-18T13:44:12;6.50;59.60
74294;DHT22;64044;59.904;10.738;2022-12-18T13:46:42;6.40;59.80
74294;DHT22;64044;59.904;10.738;2022-12-18T13:51:41;6.10;60.70
74294;DHT22;64044;59.904;10.738;2022-12-18T13:56:51;5.90;61.20
74294;DHT22;64044;59.904;10.738;2022-12-18T14:01:58;5.70;62.10
74294;DHT22;64044;59.904;10.738;2022-12-18T14:04:29;5.60;62.30
74294;DHT22;64044;59.904;10.738;2022-12-18T14:07:28;5.40;62.80
74294;DHT22;64044;59.904;10.738;2022-12-18T14:09:59;5.30;63.20
74294;DHT22;64044;59.904;10.738;2022-12-18T14:12:29;5.20;62.70
74294;DHT22;64044;59.904;10.738;2022-12-18T14:17:49;5.00;62.70
74294;DHT22;64044;59.904;10.738;2022-12-18T14:20:15;4.80;62.50
74294;DHT22;64044;59.904;10.738;2022-12-18T14:22:47;4.70;62.80
74294;DHT22;64044;59.904;10.738;2022-12-18T14:25:22;4.60;64.10
74294;DHT22;64044;59.904;10.738;2022-12-18T14:27:52;4.50;64.30
74294;DHT22;64044;59.904;10.738;2022-12-18T14:33:10;4.30;64.80
74294;DHT22;64044;59.904;10.738;2022-12-18T14:35:38;4.20;65.10
74294;DHT22;64044;59.904;10.738;2022-12-18T14:40:43;4.10;65.30
74294;DHT22;64044;59.904;10.738;2022-12-18T14:43:12;4.10;65.20
74294;DHT22;64044;59.904;10.738;2022-12-18T14:45:42;4.00;65.00
74294;DHT22;64044;59.904;10.738;2022-12-18T14:48:09;3.90;65.10
74294;DHT22;64044;59.904;10.738;2022-12-18T14:50:38;3.90;67.00
74294;DHT22;64044;59.904;10.738;2022-12-18T14:53:04;3.70;64.70
74294;DHT22;64044;59.904;10.738;2022-12-18T14:55:29;3.70;65.10
74294;DHT22;64044;59.904;10.738;2022-12-18T14:57:56;3.60;65.60
74294;DHT22;64044;59.904;10.738;2022-12-18T15:00:24;3.50;67.00
74294;DHT22;64044;59.904;10.738;2022-12-18T15:02:54;3.40;66.70
74294;DHT22;64044;59.904;10.738;2022-12-18T15:05:25;3.30;67.00
74294;DHT22;64044;59.904;10.738;2022-12-18T15:07:54;3.20;67.00
74294;DHT22;64044;59.904;10.738;2022-12-18T15:18:10;3.00;67.50
74294;DHT22;64044;59.904;10.738;2022-12-18T15:23:19;2.90;67.80
74294;DHT22;64044;59.904;10.738;2022-12-18T15:25:47;2.80;68.70
74294;DHT22;64044;59.904;10.738;2022-12-18T15:28:21;2.70;68.30
74294;DHT22;64044;59.904;10.738;2022-12-18T15:31:22;2.70;68.60
74294;DHT22;64044;59.904;10.738;2022-12-18T15:36:19;2.60;68.70
74294;DHT22;64044;59.904;10.738;2022-12-18T15:38:49;2.50;68.70
74294;DHT22;64044;59.904;10.738;2022-12-18T15:41:17;2.50;69.60
74294;DHT22;64044;59.904;10.738;2022-12-18T15:43:43;2.50;69.90
74294;DHT22;64044;59.904;10.738;2022-12-18T15:46:15;2.40;69.50
74294;DHT22;64044;59.904;10.738;2022-12-18T15:48:46;2.40;69.60
74294;DHT22;64044;59.904;10.738;2022-12-18T15:51:20;2.40;69.70
74294;DHT22;64044;59.904;10.738;2022-12-18T15:53:47;2.40;70.60
74294;DHT22;64044;59.904;10.738;2022-12-18T15:56:15;2.30;68.90
74294;DHT22;64044;59.904;10.738;2022-12-18T15:59:00;2.30;69.10
74294;DHT22;64044;59.904;10.738;2022-12-18T16:01:27;2.20;69.10
74294;DHT22;64044;59.904;10.738;2022-12-18T16:03:53;2.20;69.40
74294;DHT22;64044;59.904;10.738;2022-12-18T16:06:20;2.20;69.30
74294;DHT22;64044;59.904;10.738;2022-12-18T16:08:45;2.10;69.50
74294;DHT22;64044;59.904;10.738;2022-12-18T16:11:30;2.10;70.00
74294;DHT22;64044;59.904;10.738;2022-12-18T16:14:22;2.10;70.70
74294;DHT22;64044;59.904;10.738;2022-12-18T16:16:51;2.10;71.30
74294;DHT22;64044;59.904;10.738;2022-12-18T16:19:17;2.10;70.10
74294;DHT22;64044;59.904;10.738;2022-12-18T16:21:44;2.00;70.00
74294;DHT22;64044;59.904;10.738;2022-12-18T16:24:18;2.00;69.90
74294;DHT22;64044;59.904;10.738;2022-12-18T16:26:45;2.00;70.10
74294;DHT22;64044;59.904;10.738;2022-12-18T16:29:11;2.00;69.80
74294;DHT22;64044;59.904;10.738;2022-12-18T16:31:37;1.90;69.90
74294;DHT22;64044;59.904;10.738;2022-12-18T16:34:23;1.90;70.10
74294;DHT22;64044;59.904;10.738;2022-12-18T16:36:52;1.80;70.90
74294;DHT22;64044;59.904;10.738;2022-12-18T16:39:19;1.80;70.80
74294;DHT22;64044;59.904;10.738;2022-12-18T16:41:45;1.80;70.10
74294;DHT22;64044;59.904;10.738;2022-12-18T16:44:11;1.80;70.00
74294;DHT22;64044;59.904;10.738;2022-12-18T16:46:37;1.80;70.30
74294;DHT22;64044;59.904;10.738;2022-12-18T16:49:04;1.70;70.50
74294;DHT22;64044;59.904;10.738;2022-12-18T16:51:30;1.70;70.50
74294;DHT22;64044;59.904;10.738;2022-12-18T16:53:56;1.70;70.60
74294;DHT22;64044;59.904;10.738;2022-12-18T16:56:22;1.60;70.50
74294;DHT22;64044;59.904;10.738;2022-12-18T16:58:56;1.60;70.50
74294;DHT22;64044;59.904;10.738;2022-12-18T17:01:23;1.60;70.70
74294;DHT22;64044;59.904;10.738;2022-12-18T17:03:53;1.60;70.40
74294;DHT22;64044;59.904;10.738;2022-12-18T17:06:19;1.50;70.60
74294;DHT22;64044;59.904;10.738;2022-12-18T17:08:45;1.50;70.70
74294;DHT22;64044;59.904;10.738;2022-12-18T17:11:11;1.50;70.70
74294;DHT22;64044;59.904;10.738;2022-12-18T17:13:36;1.50;70.60
74294;DHT22;64044;59.904;10.738;2022-12-18T17:16:06;1.50;70.60
74294;DHT22;64044;59.904;10.738;2022-12-18T17:18:32;1.50;70.70
74294;DHT22;64044;59.904;10.738;2022-12-18T17:21:03;1.40;70.80
74294;DHT22;64044;59.904;10.738;2022-12-18T17:23:30;1.40;71.10
74294;DHT22;64044;59.904;10.738;2022-12-18T17:25:57;1.40;71.10
74294;DHT22;64044;59.904;10.738;2022-12-18T17:28:24;1.40;71.00
74294;DHT22;64044;59.904;10.738;2022-12-18T17:30:51;1.40;71.40
74294;DHT22;64044;59.904;10.738;2022-12-18T17:33:17;1.40;71.10
74294;DHT22;64044;59.904;10.738;2022-12-18T17:35:43;1.40;70.90
74294;DHT22;64044;59.904;10.738;2022-12-18T17:38:08;1.40;71.00
74294;DHT22;64044;59.904;10.738;2022-12-18T17:40:34;1.40;71.00
74294;DHT22;64044;59.904;10.738;2022-12-18T17:43:00;1.40;71.20
74294;DHT22;64044;59.904;10.738;2022-12-18T17:45:26;1.40;71.50
74294;DHT22;64044;59.904;10.738;2022-12-18T17:47:51;1.30;71.50
74294;DHT22;64044;59.904;10.738;2022-12-18T17:50:17;1.30;71.30
74294;DHT22;64044;59.904;10.738;2022-12-18T17:52:43;1.30;71.60
74294;DHT22;64044;59.904;10.738;2022-12-18T17:55:09;1.30;71.40
74294;DHT22;64044;59.904;10.738;2022-12-18T17:57:34;1.30;71.20
74294;DHT22;64044;59.904;10.738;2022-12-18T18:00:02;1.30;71.10
74294;DHT22;64044;59.904;10.738;2022-12-18T18:02:28;1.20;71.00
74294;DHT22;64044;59.904;10.738;2022-12-18T18:04:53;1.20;71.20
74294;DHT22;64044;59.904;10.738;2022-12-18T18:07:19;1.20;71.20
74294;DHT22;64044;59.904;10.738;2022-12-18T18:09:45;1.10;71.10
74294;DHT22;64044;59.904;10.738;2022-12-18T18:12:10;1.10;71.50